createdAt,value
2018-12-26T00:01:55.622Z,14.60
2018-12-26T00:04:24.330Z,14.60
2018-12-26T00:06:53.019Z,16.30
2018-12-26T00:09:21.703Z,19.33
2018-12-26T00:11:50.402Z,18.37
2018-12-26T00:14:19.070Z,14.63
2018-12-26T00:16:47.745Z,14.63
2018-12-26T00:19:16.456Z,16.60
2018-12-26T00:21:45.142Z,18.67
2018-12-26T00:24:13.928Z,15.30
2018-12-26T00:26:42.698Z,14.27
2018-12-26T00:29:11.370Z,15.97
2018-12-26T00:31:40.058Z,17.13
2018-12-26T00:34:08.749Z,14.27
2018-12-26T00:36:37.498Z,14.97
2018-12-26T00:39:07.079Z,15.00
2018-12-26T00:41:35.766Z,14.03
2018-12-26T00:44:04.476Z,15.90
2018-12-26T00:46:33.371Z,14.80
2018-12-26T00:49:02.260Z,12.23
2018-12-26T00:51:30.988Z,16.70
2018-12-26T00:53:59.659Z,18.40
2018-12-26T00:56:28.330Z,14.10
2018-12-26T00:58:57.075Z,19.47
2018-12-26T01:01:25.764Z,15.03
2018-12-26T01:03:54.575Z,15.30
2018-12-26T01:06:23.310Z,14.63
2018-12-26T01:08:52.031Z,17.00
2018-12-26T01:11:20.714Z,14.97
2018-12-26T01:13:49.377Z,19.87
2018-12-26T01:16:18.079Z,17.43
2018-12-26T01:18:46.749Z,16.20
2018-12-26T01:21:15.573Z,17.67
2018-12-26T01:23:44.236Z,15.93
2018-12-26T01:26:19.124Z,20.40
2018-12-26T01:28:43.370Z,16.90
2018-12-26T01:31:12.164Z,15.63
2018-12-26T01:33:40.867Z,16.13
2018-12-26T01:36:09.606Z,16.33
2018-12-26T01:38:38.347Z,17.27
2018-12-26T01:41:07.029Z,13.97
2018-12-26T01:43:35.713Z,15.63
2018-12-26T01:46:04.448Z,16.67
2018-12-26T01:48:33.124Z,15.33
2018-12-26T01:51:01.867Z,18.67
2018-12-26T01:53:30.556Z,15.53
2018-12-26T01:55:59.395Z,17.70
2018-12-26T01:58:28.111Z,16.00
2018-12-26T02:00:56.798Z,15.23
2018-12-26T02:03:25.473Z,18.00
2018-12-26T02:05:54.215Z,17.73
2018-12-26T02:08:22.893Z,20.60
2018-12-26T02:10:51.814Z,22.27
2018-12-26T02:13:20.495Z,15.77
2018-12-26T02:15:49.205Z,16.60
2018-12-26T02:18:17.907Z,18.33
2018-12-26T02:20:46.911Z,17.00
2018-12-26T02:23:15.590Z,19.53
2018-12-26T02:25:44.361Z,16.17
2018-12-26T02:28:13.067Z,16.73
2018-12-26T02:30:41.752Z,18.40
2018-12-26T02:33:10.437Z,17.80
2018-12-26T02:35:39.159Z,19.20
2018-12-26T02:38:07.839Z,17.70
2018-12-26T02:40:36.512Z,18.20
2018-12-26T02:43:05.263Z,15.27
2018-12-26T02:45:33.934Z,15.63
2018-12-26T02:48:02.602Z,17.13
2018-12-26T02:50:31.309Z,19.10
2018-12-26T02:53:00.021Z,17.77
2018-12-26T02:55:28.702Z,16.40
2018-12-26T02:57:57.420Z,17.80
2018-12-26T03:00:26.116Z,19.57
2018-12-26T03:02:54.798Z,17.20
2018-12-26T03:05:23.557Z,19.80
2018-12-26T03:07:52.296Z,17.60
2018-12-26T03:10:20.962Z,21.10
2018-12-26T03:12:49.888Z,18.67
2018-12-26T03:15:18.562Z,19.07
2018-12-26T03:17:47.240Z,18.90
2018-12-26T03:20:15.956Z,23.40
2018-12-26T03:22:44.632Z,38.67
2018-12-26T03:25:13.327Z,17.33
2018-12-26T03:27:42.011Z,17.77
2018-12-26T03:30:10.719Z,19.77
2018-12-26T03:32:39.404Z,16.97
2018-12-26T03:35:08.101Z,20.37
2018-12-26T03:37:36.809Z,20.27
2018-12-26T03:40:07.827Z,19.60
2018-12-26T03:42:36.720Z,18.70
2018-12-26T03:45:05.894Z,19.57
2018-12-26T03:47:35.005Z,19.37
2018-12-26T03:50:04.124Z,20.20
2018-12-26T03:52:32.803Z,18.30
2018-12-26T03:55:01.470Z,20.63
2018-12-26T03:57:30.175Z,18.67
2018-12-26T03:59:58.893Z,20.90
2018-12-26T04:02:27.558Z,18.13
2018-12-26T04:04:56.458Z,18.27
2018-12-26T04:07:25.147Z,20.33
2018-12-26T04:09:53.966Z,20.50
2018-12-26T04:12:22.763Z,16.93
2018-12-26T04:14:51.553Z,18.07
2018-12-26T04:17:20.451Z,18.33
2018-12-26T04:19:49.142Z,17.87
2018-12-26T04:22:17.966Z,18.60
2018-12-26T04:24:47.129Z,17.17
2018-12-26T04:27:15.956Z,18.67
2018-12-26T04:29:44.790Z,17.03
2018-12-26T04:32:13.591Z,17.80
2018-12-26T04:34:42.389Z,19.17
2018-12-26T04:37:11.068Z,20.73
2018-12-26T04:39:39.882Z,21.23
2018-12-26T04:42:08.551Z,19.23
2018-12-26T04:44:37.226Z,20.33
2018-12-26T04:47:05.956Z,18.30
2018-12-26T04:49:34.648Z,18.73
2018-12-26T04:52:03.408Z,19.93
2018-12-26T04:54:32.113Z,18.97
2018-12-26T04:57:00.812Z,18.33
2018-12-26T04:59:29.514Z,17.80
2018-12-26T05:01:58.237Z,16.77
2018-12-26T05:04:26.917Z,20.00
2018-12-26T05:06:55.581Z,21.47
2018-12-26T05:09:24.390Z,18.70
2018-12-26T05:11:53.058Z,20.13
2018-12-26T05:14:21.772Z,15.67
2018-12-26T05:16:50.450Z,18.83
2018-12-26T05:19:19.170Z,19.60
2018-12-26T05:21:47.868Z,20.23
2018-12-26T05:24:16.575Z,22.57
2018-12-26T05:26:45.229Z,21.83
2018-12-26T05:29:13.911Z,20.13
2018-12-26T05:31:42.619Z,19.20
2018-12-26T05:34:11.323Z,18.80
2018-12-26T05:36:40.036Z,19.13
2018-12-26T05:39:08.733Z,19.97
2018-12-26T05:41:37.413Z,20.00
2018-12-26T05:44:06.130Z,21.70
2018-12-26T05:46:34.790Z,18.67
2018-12-26T05:49:03.586Z,21.27
2018-12-26T05:51:32.315Z,19.10
2018-12-26T05:54:01.029Z,17.10
2018-12-26T05:56:29.789Z,19.63
2018-12-26T05:58:58.518Z,18.23
2018-12-26T06:01:27.198Z,16.47
2018-12-26T06:03:55.870Z,17.53
2018-12-26T06:06:24.608Z,20.43
2018-12-26T06:08:53.336Z,20.53
2018-12-26T06:11:22.057Z,19.20
2018-12-26T06:13:50.726Z,18.30
2018-12-26T06:16:19.463Z,19.77
2018-12-26T06:18:48.127Z,18.97
2018-12-26T06:21:16.912Z,17.27
2018-12-26T06:23:45.700Z,18.57
2018-12-26T06:26:14.375Z,22.73
2018-12-26T06:28:43.099Z,23.50
2018-12-26T06:31:11.799Z,18.53
2018-12-26T06:33:40.496Z,20.37
2018-12-26T06:36:09.201Z,19.20
2018-12-26T06:38:37.888Z,17.57
2018-12-26T06:41:06.566Z,23.37
2018-12-26T06:43:35.279Z,20.70
2018-12-26T06:46:03.957Z,18.60
2018-12-26T06:48:32.651Z,18.10
2018-12-26T06:51:01.372Z,17.50
2018-12-26T06:53:30.067Z,18.70
2018-12-26T06:55:58.876Z,21.80
2018-12-26T06:58:27.568Z,17.63
2018-12-26T07:00:56.259Z,18.57
2018-12-26T07:03:26.102Z,22.47
2018-12-26T07:05:54.917Z,20.13
2018-12-26T07:08:23.579Z,19.60
2018-12-26T07:10:52.303Z,18.10
2018-12-26T07:13:20.976Z,21.77
2018-12-26T07:15:49.702Z,21.00
2018-12-26T07:18:18.420Z,18.83
2018-12-26T07:20:47.101Z,22.37
2018-12-26T07:23:15.799Z,19.43
2018-12-26T07:25:44.544Z,17.60
2018-12-26T07:28:13.217Z,22.20
2018-12-26T07:30:41.913Z,18.33
2018-12-26T07:33:10.625Z,19.20
2018-12-26T07:35:39.332Z,21.03
2018-12-26T07:38:08.103Z,19.93
2018-12-26T07:40:36.785Z,18.87
2018-12-26T07:43:05.485Z,18.20
2018-12-26T07:45:34.157Z,19.37
2018-12-26T07:48:02.868Z,18.20
2018-12-26T07:50:31.546Z,20.27
2018-12-26T07:53:00.294Z,19.37
2018-12-26T07:55:29.012Z,18.83
2018-12-26T07:57:57.704Z,20.17
2018-12-26T08:00:26.455Z,22.07
2018-12-26T08:02:55.188Z,20.10
2018-12-26T08:05:24.019Z,19.70
2018-12-26T08:07:52.700Z,20.10
2018-12-26T08:10:21.391Z,19.43
2018-12-26T08:12:50.067Z,18.57
2018-12-26T08:15:18.789Z,20.90
2018-12-26T08:17:47.558Z,21.23
2018-12-26T08:20:16.249Z,19.70
2018-12-26T08:22:45.073Z,16.03
2018-12-26T08:25:13.847Z,17.67
2018-12-26T08:27:42.567Z,19.30
2018-12-26T08:30:11.234Z,17.13
2018-12-26T08:32:39.939Z,19.07
2018-12-26T08:35:08.642Z,19.47
2018-12-26T08:37:37.320Z,19.30
2018-12-26T08:40:07.463Z,17.00
2018-12-26T08:42:36.145Z,18.33
2018-12-26T08:45:05.328Z,21.07
2018-12-26T08:47:34.029Z,20.37
2018-12-26T08:50:02.755Z,17.60
2018-12-26T08:52:31.843Z,21.23
2018-12-26T08:55:00.623Z,18.13
2018-12-26T08:57:29.416Z,15.50
2018-12-26T08:59:58.094Z,21.43
2018-12-26T09:02:26.809Z,17.90
2018-12-26T09:04:55.474Z,16.73
2018-12-26T09:07:24.174Z,15.40
2018-12-26T09:09:52.887Z,20.67
2018-12-26T09:12:21.600Z,16.73
2018-12-26T09:14:50.330Z,15.83
2018-12-26T09:17:19.044Z,21.03
2018-12-26T09:19:47.718Z,18.33
2018-12-26T09:22:16.431Z,17.70
2018-12-26T09:24:45.113Z,17.23
2018-12-26T09:27:13.906Z,19.70
2018-12-26T09:29:42.585Z,16.97
2018-12-26T09:32:11.278Z,19.53
2018-12-26T09:34:40.014Z,16.67
2018-12-26T09:37:08.697Z,17.63
2018-12-26T09:39:37.451Z,15.67
2018-12-26T09:42:06.164Z,15.80
2018-12-26T09:44:34.845Z,18.73
2018-12-26T09:47:03.562Z,17.90
2018-12-26T09:49:32.283Z,17.10
2018-12-26T09:52:01.132Z,19.57
2018-12-26T09:54:29.899Z,17.20
2018-12-26T09:56:58.611Z,17.73
2018-12-26T09:59:27.323Z,16.03
2018-12-26T10:01:56.027Z,22.23
2018-12-26T10:04:24.703Z,18.43
2018-12-26T10:06:53.398Z,16.27
2018-12-26T10:09:22.099Z,19.17
2018-12-26T10:11:50.773Z,18.13
2018-12-26T10:14:19.585Z,16.23
2018-12-26T10:16:48.263Z,16.57
2018-12-26T10:19:16.973Z,15.23
2018-12-26T10:21:45.792Z,16.60
2018-12-26T10:24:14.486Z,16.10
2018-12-26T10:26:43.198Z,19.57
2018-12-26T10:29:11.925Z,22.10
2018-12-26T10:31:40.582Z,16.10
2018-12-26T10:34:09.391Z,16.30
2018-12-26T10:36:38.072Z,14.80
2018-12-26T10:39:06.986Z,15.47
2018-12-26T10:41:35.681Z,16.77
2018-12-26T10:44:04.399Z,15.63
2018-12-26T10:46:33.103Z,16.87
2018-12-26T10:49:01.808Z,14.20
2018-12-26T10:51:30.571Z,14.00
2018-12-26T10:53:59.295Z,15.17
2018-12-26T10:56:28.032Z,15.03
2018-12-26T10:58:56.702Z,15.57
2018-12-26T11:01:25.411Z,12.90
2018-12-26T11:03:54.231Z,14.87
2018-12-26T11:06:22.953Z,16.30
2018-12-26T11:08:51.631Z,15.37
2018-12-26T11:11:20.411Z,14.30
2018-12-26T11:13:49.113Z,15.37
2018-12-26T11:16:17.844Z,14.20
2018-12-26T11:18:46.562Z,16.87
2018-12-26T11:21:15.251Z,14.40
2018-12-26T11:23:43.938Z,13.10
2018-12-26T11:26:12.645Z,15.47
2018-12-26T11:28:41.308Z,12.60
2018-12-26T11:31:09.981Z,13.87
2018-12-26T11:33:38.712Z,12.20
2018-12-26T11:36:07.397Z,13.47
2018-12-26T11:38:36.419Z,14.03
2018-12-26T11:41:05.303Z,13.13
2018-12-26T11:43:34.104Z,13.67
2018-12-26T11:46:02.803Z,15.20
2018-12-26T11:48:31.569Z,12.17
2018-12-26T11:51:00.251Z,12.23
2018-12-26T11:53:28.956Z,12.90
2018-12-26T11:55:57.626Z,14.93
2018-12-26T11:58:26.309Z,14.03
2018-12-26T12:00:55.007Z,12.87
2018-12-26T12:03:23.721Z,11.83
2018-12-26T12:05:52.403Z,12.60
2018-12-26T12:08:21.118Z,12.33
2018-12-26T12:10:50.209Z,11.77
2018-12-26T12:13:18.985Z,12.00
2018-12-26T12:15:48.069Z,11.83
2018-12-26T12:18:16.756Z,13.20
2018-12-26T12:20:45.431Z,10.80
2018-12-26T12:23:14.217Z,17.23
2018-12-26T12:25:42.888Z,10.50
2018-12-26T12:28:11.598Z,11.53
2018-12-26T12:30:40.444Z,12.30
2018-12-26T12:33:09.147Z,12.70
2018-12-26T12:35:37.972Z,13.17
2018-12-26T12:38:06.666Z,11.50
2018-12-26T12:40:35.549Z,12.27
2018-12-26T12:43:04.362Z,12.30
2018-12-26T12:45:33.052Z,13.47
2018-12-26T12:48:01.832Z,11.00
2018-12-26T12:50:30.546Z,12.40
2018-12-26T12:52:59.253Z,11.70
2018-12-26T12:55:28.123Z,11.50
2018-12-26T12:57:57.100Z,11.50
2018-12-26T13:00:25.807Z,10.37
2018-12-26T13:03:00.418Z,10.53
2018-12-26T13:05:25.020Z,10.80
2018-12-26T13:07:53.751Z,11.90
2018-12-26T13:10:22.411Z,12.73
2018-12-26T13:12:51.115Z,12.83
2018-12-26T13:15:19.826Z,11.03
2018-12-26T13:17:48.487Z,11.50
2018-12-26T13:20:17.155Z,13.53
2018-12-26T13:22:45.864Z,11.90
2018-12-26T13:25:14.565Z,11.30
2018-12-26T13:27:43.254Z,10.57
2018-12-26T13:30:11.945Z,10.60
2018-12-26T13:32:40.618Z,11.37
2018-12-26T13:35:09.430Z,12.20
2018-12-26T13:37:44.206Z,10.80
2018-12-26T13:40:12.908Z,11.47
2018-12-26T13:42:41.570Z,14.00
2018-12-26T13:45:10.277Z,10.83
2018-12-26T13:47:38.959Z,11.40
2018-12-26T13:50:08.265Z,12.13
2018-12-26T13:52:36.976Z,12.30
2018-12-26T13:55:05.661Z,13.53
2018-12-26T13:57:34.497Z,10.57
2018-12-26T14:00:05.664Z,11.83
2018-12-26T14:02:34.376Z,11.60
2018-12-26T14:05:03.047Z,10.33
2018-12-26T14:07:31.762Z,11.50
2018-12-26T14:10:00.434Z,13.43
2018-12-26T14:12:29.161Z,16.33
2018-12-26T14:14:57.912Z,11.37
2018-12-26T14:17:26.611Z,11.53
2018-12-26T14:19:55.324Z,13.00
2018-12-26T14:22:24.219Z,11.37
2018-12-26T14:24:52.911Z,10.53
2018-12-26T14:27:29.092Z,11.43
2018-12-26T14:29:52.068Z,10.50
2018-12-26T14:32:20.772Z,11.20
2018-12-26T14:34:49.501Z,12.40
2018-12-26T14:37:18.206Z,9.93
2018-12-26T14:39:46.892Z,11.77
2018-12-26T14:42:15.608Z,11.57
2018-12-26T14:44:44.334Z,12.37
2018-12-26T14:47:12.991Z,11.23
2018-12-26T14:49:41.684Z,10.50
2018-12-26T14:52:10.385Z,9.53
2018-12-26T14:54:39.072Z,10.23
2018-12-26T14:57:07.893Z,12.60
2018-12-26T14:59:36.851Z,11.10
2018-12-26T15:02:05.563Z,11.63
2018-12-26T15:04:35.689Z,9.57
2018-12-26T15:07:04.527Z,11.60
2018-12-26T15:09:33.201Z,12.20
2018-12-26T15:12:01.908Z,14.60
2018-12-26T15:14:30.580Z,12.90
2018-12-26T15:16:59.271Z,13.17
2018-12-26T15:19:28.018Z,12.17
2018-12-26T15:21:56.696Z,11.50
2018-12-26T15:24:25.424Z,11.73
2018-12-26T15:26:54.091Z,11.63
2018-12-26T15:29:22.778Z,13.97
2018-12-26T15:31:51.559Z,13.00
2018-12-26T15:34:20.424Z,11.10
2018-12-26T15:36:49.143Z,13.10
2018-12-26T15:39:17.979Z,10.63
2018-12-26T15:41:46.693Z,11.40
2018-12-26T15:44:15.429Z,11.60
2018-12-26T15:46:44.150Z,12.80
2018-12-26T15:49:12.803Z,10.73
2018-12-26T15:51:41.511Z,11.40
2018-12-26T15:54:10.181Z,10.40
2018-12-26T15:56:38.883Z,10.70
2018-12-26T15:59:07.558Z,11.40
2018-12-26T16:01:36.390Z,10.30
2018-12-26T16:04:09.441Z,10.90
2018-12-26T16:06:38.014Z,13.37
2018-12-26T16:09:06.892Z,11.27
2018-12-26T16:11:35.581Z,10.17
2018-12-26T16:14:04.393Z,11.87
2018-12-26T16:16:33.109Z,10.53
2018-12-26T16:19:01.956Z,11.40
2018-12-26T16:21:30.641Z,10.83
2018-12-26T16:23:59.356Z,12.10
2018-12-26T16:26:28.036Z,10.60
2018-12-26T16:28:56.765Z,11.50
2018-12-26T16:31:25.677Z,11.47
2018-12-26T16:33:54.367Z,11.83
2018-12-26T16:36:23.060Z,11.90
2018-12-26T16:38:51.762Z,12.13
2018-12-26T16:41:20.572Z,9.47
2018-12-26T16:43:49.242Z,10.00
2018-12-26T16:46:17.945Z,9.90
2018-12-26T16:48:46.659Z,10.20
2018-12-26T16:51:15.367Z,9.83
2018-12-26T16:53:44.025Z,9.10
2018-12-26T16:56:12.730Z,8.90
2018-12-26T16:58:41.412Z,10.57
2018-12-26T17:01:10.091Z,9.53
2018-12-26T17:03:38.806Z,10.33
2018-12-26T17:06:07.511Z,10.30
2018-12-26T17:08:36.183Z,13.00
2018-12-26T17:11:04.899Z,11.37
2018-12-26T17:13:33.582Z,10.00
2018-12-26T17:16:02.400Z,11.13
2018-12-26T17:18:31.099Z,11.00
2018-12-26T17:20:59.779Z,10.17
2018-12-26T17:23:28.494Z,9.80
2018-12-26T17:25:57.215Z,10.77
2018-12-26T17:28:25.919Z,10.20
2018-12-26T17:30:54.572Z,11.17
2018-12-26T17:33:23.274Z,9.40
2018-12-26T17:35:51.971Z,10.20
2018-12-26T17:38:20.667Z,10.00
2018-12-26T17:40:49.339Z,9.63
2018-12-26T17:43:18.028Z,9.57
2018-12-26T17:45:46.729Z,10.00
2018-12-26T17:48:15.412Z,11.73
2018-12-26T17:50:49.146Z,10.23
2018-12-26T17:53:23.451Z,10.70
2018-12-26T17:56:09.380Z,9.93
2018-12-26T17:58:49.655Z,9.07
2018-12-26T18:01:30.273Z,10.40
2018-12-26T18:03:58.944Z,9.43
2018-12-26T18:06:27.663Z,9.93
2018-12-26T18:08:56.329Z,9.47
2018-12-26T18:11:25.024Z,15.50
2018-12-26T18:13:53.722Z,11.17
2018-12-26T18:16:22.431Z,11.33
2018-12-26T18:18:51.103Z,9.43
2018-12-26T18:21:19.811Z,10.23
2018-12-26T18:23:48.539Z,11.47
2018-12-26T18:26:17.211Z,9.47
2018-12-26T18:28:45.901Z,10.77
2018-12-26T18:31:21.998Z,10.00
2018-12-26T18:33:45.000Z,10.50
2018-12-26T18:36:13.714Z,11.13
2018-12-26T18:38:42.402Z,10.90
2018-12-26T18:41:11.113Z,11.57
2018-12-26T18:43:39.842Z,14.60
2018-12-26T18:46:08.532Z,11.10
2018-12-26T18:48:37.204Z,14.70
2018-12-26T18:51:05.943Z,10.00
2018-12-26T18:53:34.646Z,10.27
2018-12-26T18:56:03.314Z,10.47
2018-12-26T18:58:32.148Z,16.20
2018-12-26T19:01:00.851Z,13.13
2018-12-26T19:03:29.522Z,11.63
2018-12-26T19:05:58.295Z,12.13
2018-12-26T19:08:26.954Z,10.63
2018-12-26T19:10:55.712Z,12.10
2018-12-26T19:13:24.407Z,12.40
2018-12-26T19:15:53.138Z,11.63
2018-12-26T19:18:21.994Z,9.90
2018-12-26T19:20:50.710Z,10.97
2018-12-26T19:23:19.391Z,10.43
2018-12-26T19:25:48.088Z,9.93
2018-12-26T19:28:16.853Z,7.80
2018-12-26T19:30:45.561Z,9.00
2018-12-26T19:33:14.251Z,10.23
2018-12-26T19:35:42.984Z,13.60
2018-12-26T19:38:11.673Z,10.73
2018-12-26T19:40:40.562Z,10.47
2018-12-26T19:43:09.267Z,10.53
2018-12-26T19:45:40.089Z,11.40
2018-12-26T19:48:08.501Z,7.63
2018-12-26T19:50:37.194Z,12.37
2018-12-26T19:53:05.909Z,9.93
2018-12-26T19:55:34.625Z,10.10
2018-12-26T19:58:03.314Z,11.37
2018-12-26T20:00:32.086Z,10.53
2018-12-26T20:03:00.789Z,12.30
2018-12-26T20:05:29.536Z,9.00
2018-12-26T20:07:58.313Z,9.40
2018-12-26T20:10:26.997Z,9.63
2018-12-26T20:12:55.711Z,9.80
2018-12-26T20:15:24.385Z,10.33
2018-12-26T20:17:53.107Z,9.60
2018-12-26T20:20:21.774Z,9.70
2018-12-26T20:22:50.502Z,10.40
2018-12-26T20:25:19.194Z,8.53
2018-12-26T20:27:48.033Z,9.33
2018-12-26T20:30:16.699Z,11.00
2018-12-26T20:32:45.412Z,13.33
2018-12-26T20:35:14.140Z,8.90
2018-12-26T20:37:42.799Z,9.40
2018-12-26T20:40:11.607Z,8.40
2018-12-26T20:42:40.341Z,10.43
2018-12-26T20:45:09.056Z,9.40
2018-12-26T20:47:37.775Z,10.80
2018-12-26T20:50:07.548Z,9.70
2018-12-26T20:52:36.250Z,8.67
2018-12-26T20:55:05.357Z,9.50
2018-12-26T20:57:34.123Z,9.60
2018-12-26T21:00:03.034Z,10.30
2018-12-26T21:02:31.690Z,9.67
2018-12-26T21:05:00.549Z,10.80
2018-12-26T21:07:29.357Z,9.13
2018-12-26T21:09:58.077Z,11.57
2018-12-26T21:12:27.274Z,9.30
2018-12-26T21:14:56.039Z,9.63
2018-12-26T21:17:24.833Z,10.03
2018-12-26T21:19:53.552Z,10.27
2018-12-26T21:22:22.211Z,9.50
2018-12-26T21:24:50.926Z,10.00
2018-12-26T21:27:19.591Z,10.17
2018-12-26T21:29:48.290Z,8.80
2018-12-26T21:32:17.090Z,8.80
2018-12-26T21:34:45.752Z,7.73
2018-12-26T21:37:14.455Z,8.47
2018-12-26T21:39:43.160Z,8.80
2018-12-26T21:42:11.975Z,8.57
2018-12-26T21:44:40.655Z,7.87
2018-12-26T21:47:09.367Z,8.47
2018-12-26T21:49:38.023Z,8.93
2018-12-26T21:52:06.735Z,7.43
2018-12-26T21:54:35.387Z,7.53
2018-12-26T21:57:04.099Z,6.80
2018-12-26T21:59:32.788Z,7.20
2018-12-26T22:02:01.445Z,6.27
2018-12-26T22:04:30.167Z,6.27
2018-12-26T22:06:58.831Z,7.43
2018-12-26T22:09:27.546Z,7.47
2018-12-26T22:11:56.204Z,6.00
2018-12-26T22:14:24.919Z,7.07
2018-12-26T22:16:53.580Z,6.43
2018-12-26T22:19:22.362Z,6.47
2018-12-26T22:21:51.166Z,6.60
2018-12-26T22:24:19.859Z,6.67
2018-12-26T22:26:48.555Z,6.60
2018-12-26T22:29:17.222Z,6.70
2018-12-26T22:31:45.959Z,6.60
2018-12-26T22:34:14.623Z,6.13
2018-12-26T22:36:43.295Z,6.17
2018-12-26T22:39:11.987Z,5.77
2018-12-26T22:41:40.647Z,5.40
2018-12-26T22:44:09.355Z,7.03
2018-12-26T22:46:38.040Z,6.63
2018-12-26T22:49:06.744Z,6.60
2018-12-26T22:51:41.787Z,5.90
2018-12-26T22:54:05.885Z,6.77
2018-12-26T22:56:34.598Z,8.00
2018-12-26T22:59:03.271Z,5.87
2018-12-26T23:01:31.953Z,8.83
2018-12-26T23:04:00.665Z,6.60
2018-12-26T23:06:29.455Z,6.47
2018-12-26T23:08:58.211Z,6.03
2018-12-26T23:11:26.912Z,6.27
2018-12-26T23:13:55.615Z,4.90
2018-12-26T23:16:24.286Z,6.27
2018-12-26T23:18:52.995Z,5.27
2018-12-26T23:21:21.677Z,5.37
2018-12-26T23:23:50.420Z,5.97
2018-12-26T23:26:19.114Z,5.53
2018-12-26T23:28:47.886Z,6.23
2018-12-26T23:31:16.587Z,6.07
2018-12-26T23:33:45.254Z,6.10
2018-12-26T23:36:13.953Z,6.03
2018-12-26T23:38:42.612Z,7.37
2018-12-26T23:41:11.320Z,7.50
2018-12-26T23:43:40.035Z,7.33
2018-12-26T23:46:08.818Z,6.80
2018-12-26T23:48:37.496Z,5.37
2018-12-26T23:51:06.377Z,7.03
2018-12-26T23:53:35.060Z,5.87
2018-12-26T23:56:03.745Z,5.47
2018-12-26T23:58:32.435Z,5.00
